sensor_id;sensor_type;location;lat;lon;timestamp;P1;durP1;ratioP1;P2;durP2;ratioP2
17177;SDS011;8704;52.006;4.374;2023-04-25T00:00:25;15.00;;;4.32;;
17177;SDS011;8704;52.006;4.374;2023-04-25T00:02:53;15.85;;;4.57;;
17177;SDS011;8704;52.006;4.374;2023-04-25T00:05:22;15.63;;;4.45;;
17177;SDS011;8704;52.006;4.374;2023-04-25T00:07:51;19.70;;;4.57;;
17177;SDS011;8704;52.006;4.374;2023-04-25T00:10:21;18.20;;;4.60;;
17177;SDS011;8704;52.006;4.374;2023-04-25T00:12:49;16.90;;;3.75;;
17177;SDS011;8704;52.006;4.374;2023-04-25T00:15:17;13.75;;;3.90;;
17177;SDS011;8704;52.006;4.374;2023-04-25T00:17:45;11.77;;;3.92;;
17177;SDS011;8704;52.006;4.374;2023-04-25T00:20:14;15.40;;;3.30;;
17177;SDS011;8704;52.006;4.374;2023-04-25T00:22:42;17.02;;;3.90;;
17177;SDS011;8704;52.006;4.374;2023-04-25T00:25:10;11.85;;;3.83;;
17177;SDS011;8704;52.006;4.374;2023-04-25T00:27:40;10.93;;;4.03;;
17177;SDS011;8704;52.006;4.374;2023-04-25T00:30:08;15.10;;;4.22;;
17177;SDS011;8704;52.006;4.374;2023-04-25T00:32:37;14.85;;;4.05;;
17177;SDS011;8704;52.006;4.374;2023-04-25T00:35:05;14.90;;;4.00;;
17177;SDS011;8704;52.006;4.374;2023-04-25T00:37:33;15.95;;;4.22;;
17177;SDS011;8704;52.006;4.374;2023-04-25T00:40:02;12.23;;;3.95;;
17177;SDS011;8704;52.006;4.374;2023-04-25T00:42:32;18.08;;;4.30;;
17177;SDS011;8704;52.006;4.374;2023-04-25T00:45:03;18.67;;;3.88;;
17177;SDS011;8704;52.006;4.374;2023-04-25T00:47:33;18.63;;;4.28;;
17177;SDS011;8704;52.006;4.374;2023-04-25T00:50:02;11.73;;;4.20;;
17177;SDS011;8704;52.006;4.374;2023-04-25T00:52:30;14.13;;;3.25;;
17177;SDS011;8704;52.006;4.374;2023-04-25T00:54:58;12.05;;;3.78;;
17177;SDS011;8704;52.006;4.374;2023-04-25T00:57:27;13.85;;;3.65;;
17177;SDS011;8704;52.006;4.374;2023-04-25T00:59:55;13.90;;;3.90;;
17177;SDS011;8704;52.006;4.374;2023-04-25T01:02:25;17.25;;;3.95;;
17177;SDS011;8704;52.006;4.374;2023-04-25T01:04:54;15.82;;;4.00;;
17177;SDS011;8704;52.006;4.374;2023-04-25T01:07:22;14.18;;;4.10;;
17177;SDS011;8704;52.006;4.374;2023-04-25T01:09:51;12.27;;;3.25;;
17177;SDS011;8704;52.006;4.374;2023-04-25T01:12:19;11.50;;;3.35;;
17177;SDS011;8704;52.006;4.374;2023-04-25T01:14:48;13.45;;;3.25;;
17177;SDS011;8704;52.006;4.374;2023-04-25T01:17:17;15.73;;;3.70;;
17177;SDS011;8704;52.006;4.374;2023-04-25T01:19:47;10.00;;;3.45;;
17177;SDS011;8704;52.006;4.374;2023-04-25T01:22:16;17.20;;;3.85;;
17177;SDS011;8704;52.006;4.374;2023-04-25T01:24:44;13.18;;;3.67;;
17177;SDS011;8704;52.006;4.374;2023-04-25T01:27:13;14.32;;;3.15;;
17177;SDS011;8704;52.006;4.374;2023-04-25T01:29:41;12.20;;;3.30;;
17177;SDS011;8704;52.006;4.374;2023-04-25T01:32:09;11.90;;;3.65;;
17177;SDS011;8704;52.006;4.374;2023-04-25T01:34:38;14.88;;;3.80;;
17177;SDS011;8704;52.006;4.374;2023-04-25T01:37:06;10.55;;;3.40;;
17177;SDS011;8704;52.006;4.374;2023-04-25T01:39:35;14.50;;;2.95;;
17177;SDS011;8704;52.006;4.374;2023-04-25T01:42:03;13.95;;;3.22;;
17177;SDS011;8704;52.006;4.374;2023-04-25T01:44:31;12.68;;;3.10;;
17177;SDS011;8704;52.006;4.374;2023-04-25T01:47:00;13.10;;;3.42;;
17177;SDS011;8704;52.006;4.374;2023-04-25T01:49:28;14.35;;;3.83;;
17177;SDS011;8704;52.006;4.374;2023-04-25T01:51:56;15.68;;;3.33;;
17177;SDS011;8704;52.006;4.374;2023-04-25T01:54:24;15.15;;;3.80;;
17177;SDS011;8704;52.006;4.374;2023-04-25T01:56:53;13.90;;;3.40;;
17177;SDS011;8704;52.006;4.374;2023-04-25T01:59:24;9.32;;;3.15;;
17177;SDS011;8704;52.006;4.374;2023-04-25T02:01:52;15.02;;;3.03;;
17177;SDS011;8704;52.006;4.374;2023-04-25T02:04:20;13.60;;;3.50;;
17177;SDS011;8704;52.006;4.374;2023-04-25T02:06:48;16.13;;;3.28;;
17177;SDS011;8704;52.006;4.374;2023-04-25T02:09:16;11.05;;;3.28;;
17177;SDS011;8704;52.006;4.374;2023-04-25T02:11:44;11.82;;;3.45;;
17177;SDS011;8704;52.006;4.374;2023-04-25T02:14:14;11.98;;;3.50;;
17177;SDS011;8704;52.006;4.374;2023-04-25T02:16:42;13.77;;;3.47;;
17177;SDS011;8704;52.006;4.374;2023-04-25T02:19:11;14.23;;;3.80;;
17177;SDS011;8704;52.006;4.374;2023-04-25T02:21:39;13.98;;;3.70;;
17177;SDS011;8704;52.006;4.374;2023-04-25T02:24:07;17.23;;;3.92;;
17177;SDS011;8704;52.006;4.374;2023-04-25T02:26:36;10.63;;;3.55;;
17177;SDS011;8704;52.006;4.374;2023-04-25T02:29:04;19.05;;;4.63;;
17177;SDS011;8704;52.006;4.374;2023-04-25T02:31:33;14.10;;;3.90;;
17177;SDS011;8704;52.006;4.374;2023-04-25T02:34:01;14.93;;;3.85;;
17177;SDS011;8704;52.006;4.374;2023-04-25T02:36:29;14.20;;;4.05;;
17177;SDS011;8704;52.006;4.374;2023-04-25T02:39:00;16.90;;;4.05;;
17177;SDS011;8704;52.006;4.374;2023-04-25T02:41:29;16.55;;;4.07;;
17177;SDS011;8704;52.006;4.374;2023-04-25T02:43:57;13.73;;;3.50;;
17177;SDS011;8704;52.006;4.374;2023-04-25T02:46:25;12.82;;;3.17;;
17177;SDS011;8704;52.006;4.374;2023-04-25T02:49:05;14.10;;;3.00;;
17177;SDS011;8704;52.006;4.374;2023-04-25T02:51:33;15.32;;;3.17;;
17177;SDS011;8704;52.006;4.374;2023-04-25T02:54:02;12.48;;;3.05;;
17177;SDS011;8704;52.006;4.374;2023-04-25T02:56:30;16.52;;;3.70;;
17177;SDS011;8704;52.006;4.374;2023-04-25T02:58:58;14.25;;;3.10;;
17177;SDS011;8704;52.006;4.374;2023-04-25T03:01:26;12.80;;;3.08;;
17177;SDS011;8704;52.006;4.374;2023-04-25T03:03:54;10.65;;;3.22;;
17177;SDS011;8704;52.006;4.374;2023-04-25T03:06:23;12.80;;;3.03;;
17177;SDS011;8704;52.006;4.374;2023-04-25T03:08:51;13.00;;;3.13;;
17177;SDS011;8704;52.006;4.374;2023-04-25T03:11:19;13.88;;;2.75;;
17177;SDS011;8704;52.006;4.374;2023-04-25T03:13:47;12.38;;;2.80;;
17177;SDS011;8704;52.006;4.374;2023-04-25T03:16:16;10.30;;;2.65;;
17177;SDS011;8704;52.006;4.374;2023-04-25T03:18:44;11.50;;;2.55;;
17177;SDS011;8704;52.006;4.374;2023-04-25T03:21:12;10.93;;;2.75;;
17177;SDS011;8704;52.006;4.374;2023-04-25T03:23:41;12.65;;;2.70;;
17177;SDS011;8704;52.006;4.374;2023-04-25T03:26:09;14.13;;;2.33;;
17177;SDS011;8704;52.006;4.374;2023-04-25T03:28:37;12.77;;;2.70;;
17177;SDS011;8704;52.006;4.374;2023-04-25T03:31:06;11.82;;;2.80;;
17177;SDS011;8704;52.006;4.374;2023-04-25T03:33:34;11.38;;;2.85;;
17177;SDS011;8704;52.006;4.374;2023-04-25T03:36:02;12.02;;;3.20;;
17177;SDS011;8704;52.006;4.374;2023-04-25T03:38:30;11.30;;;2.78;;
17177;SDS011;8704;52.006;4.374;2023-04-25T03:41:00;12.82;;;2.90;;
17177;SDS011;8704;52.006;4.374;2023-04-25T03:43:28;11.75;;;3.00;;
17177;SDS011;8704;52.006;4.374;2023-04-25T03:45:56;12.48;;;2.80;;
17177;SDS011;8704;52.006;4.374;2023-04-25T03:48:25;10.95;;;2.85;;
17177;SDS011;8704;52.006;4.374;2023-04-25T03:50:53;12.73;;;3.00;;
17177;SDS011;8704;52.006;4.374;2023-04-25T03:53:21;10.88;;;2.65;;
17177;SDS011;8704;52.006;4.374;2023-04-25T03:55:49;12.60;;;2.65;;
17177;SDS011;8704;52.006;4.374;2023-04-25T03:58:19;9.38;;;2.97;;
17177;SDS011;8704;52.006;4.374;2023-04-25T04:00:47;13.45;;;2.70;;
17177;SDS011;8704;52.006;4.374;2023-04-25T04:03:15;10.73;;;2.40;;
17177;SDS011;8704;52.006;4.374;2023-04-25T04:05:43;10.02;;;2.55;;
17177;SDS011;8704;52.006;4.374;2023-04-25T04:08:12;12.80;;;2.80;;
17177;SDS011;8704;52.006;4.374;2023-04-25T04:10:40;11.90;;;2.92;;
17177;SDS011;8704;52.006;4.374;2023-04-25T04:13:08;10.77;;;2.30;;
17177;SDS011;8704;52.006;4.374;2023-04-25T04:15:38;9.23;;;2.30;;
17177;SDS011;8704;52.006;4.374;2023-04-25T04:18:06;12.55;;;2.42;;
17177;SDS011;8704;52.006;4.374;2023-04-25T04:20:34;9.40;;;2.60;;
17177;SDS011;8704;52.006;4.374;2023-04-25T04:23:02;13.27;;;2.70;;
17177;SDS011;8704;52.006;4.374;2023-04-25T04:25:31;7.70;;;2.10;;
17177;SDS011;8704;52.006;4.374;2023-04-25T04:28:00;7.68;;;1.95;;
17177;SDS011;8704;52.006;4.374;2023-04-25T04:30:28;8.13;;;2.58;;
17177;SDS011;8704;52.006;4.374;2023-04-25T04:32:58;9.38;;;2.47;;
17177;SDS011;8704;52.006;4.374;2023-04-25T04:35:27;12.45;;;2.60;;
17177;SDS011;8704;52.006;4.374;2023-04-25T04:37:55;11.40;;;2.08;;
17177;SDS011;8704;52.006;4.374;2023-04-25T04:40:23;12.85;;;2.60;;
17177;SDS011;8704;52.006;4.374;2023-04-25T04:42:51;12.45;;;2.67;;
17177;SDS011;8704;52.006;4.374;2023-04-25T04:45:22;10.38;;;2.50;;
17177;SDS011;8704;52.006;4.374;2023-04-25T04:47:50;8.88;;;2.38;;
17177;SDS011;8704;52.006;4.374;2023-04-25T04:50:20;9.30;;;2.67;;
17177;SDS011;8704;52.006;4.374;2023-04-25T04:52:48;12.35;;;2.85;;
17177;SDS011;8704;52.006;4.374;2023-04-25T04:55:17;9.15;;;2.85;;
17177;SDS011;8704;52.006;4.374;2023-04-25T04:57:45;14.60;;;3.00;;
17177;SDS011;8704;52.006;4.374;2023-04-25T05:00:13;8.75;;;2.60;;
17177;SDS011;8704;52.006;4.374;2023-04-25T05:02:42;11.00;;;2.72;;
17177;SDS011;8704;52.006;4.374;2023-04-25T05:05:10;12.23;;;2.95;;
17177;SDS011;8704;52.006;4.374;2023-04-25T05:07:39;14.68;;;2.53;;
17177;SDS011;8704;52.006;4.374;2023-04-25T05:10:08;9.32;;;2.65;;
17177;SDS011;8704;52.006;4.374;2023-04-25T05:12:36;10.10;;;2.53;;
17177;SDS011;8704;52.006;4.374;2023-04-25T05:15:05;13.75;;;2.88;;
17177;SDS011;8704;52.006;4.374;2023-04-25T05:17:33;10.98;;;2.78;;
17177;SDS011;8704;52.006;4.374;2023-04-25T05:20:01;12.00;;;2.45;;
17177;SDS011;8704;52.006;4.374;2023-04-25T05:22:31;8.68;;;2.28;;
17177;SDS011;8704;52.006;4.374;2023-04-25T05:25:01;9.15;;;2.25;;
17177;SDS011;8704;52.006;4.374;2023-04-25T05:27:29;9.70;;;2.20;;
17177;SDS011;8704;52.006;4.374;2023-04-25T05:29:57;6.85;;;1.80;;
17177;SDS011;8704;52.006;4.374;2023-04-25T05:32:25;7.28;;;1.95;;
17177;SDS011;8704;52.006;4.374;2023-04-25T05:34:54;8.48;;;1.80;;
17177;SDS011;8704;52.006;4.374;2023-04-25T05:37:22;9.98;;;1.60;;
17177;SDS011;8704;52.006;4.374;2023-04-25T05:39:50;7.10;;;1.92;;
17177;SDS011;8704;52.006;4.374;2023-04-25T05:42:19;5.63;;;1.85;;
17177;SDS011;8704;52.006;4.374;2023-04-25T05:44:47;10.38;;;1.90;;
17177;SDS011;8704;52.006;4.374;2023-04-25T05:47:15;7.60;;;2.03;;
17177;SDS011;8704;52.006;4.374;2023-04-25T05:49:43;7.32;;;2.17;;
17177;SDS011;8704;52.006;4.374;2023-04-25T05:52:11;5.90;;;1.98;;
17177;SDS011;8704;52.006;4.374;2023-04-25T05:54:39;9.90;;;2.05;;
17177;SDS011;8704;52.006;4.374;2023-04-25T05:57:07;7.63;;;1.98;;
17177;SDS011;8704;52.006;4.374;2023-04-25T05:59:36;8.18;;;1.83;;
17177;SDS011;8704;52.006;4.374;2023-04-25T06:02:04;7.47;;;2.10;;
17177;SDS011;8704;52.006;4.374;2023-04-25T06:04:33;8.30;;;2.20;;
17177;SDS011;8704;52.006;4.374;2023-04-25T06:07:01;10.27;;;2.00;;
17177;SDS011;8704;52.006;4.374;2023-04-25T06:09:30;8.30;;;1.77;;
17177;SDS011;8704;52.006;4.374;2023-04-25T06:11:58;7.60;;;2.03;;
17177;SDS011;8704;52.006;4.374;2023-04-25T06:14:26;5.38;;;1.52;;
17177;SDS011;8704;52.006;4.374;2023-04-25T06:16:56;11.23;;;2.00;;
17177;SDS011;8704;52.006;4.374;2023-04-25T06:19:24;7.68;;;2.05;;
17177;SDS011;8704;52.006;4.374;2023-04-25T06:21:52;7.65;;;1.80;;
17177;SDS011;8704;52.006;4.374;2023-04-25T06:24:20;6.78;;;1.70;;
17177;SDS011;8704;52.006;4.374;2023-04-25T06:26:48;8.35;;;2.10;;
17177;SDS011;8704;52.006;4.374;2023-04-25T06:29:16;5.18;;;1.75;;
17177;SDS011;8704;52.006;4.374;2023-04-25T06:31:44;8.27;;;2.08;;
17177;SDS011;8704;52.006;4.374;2023-04-25T06:34:13;8.55;;;2.38;;
17177;SDS011;8704;52.006;4.374;2023-04-25T06:36:41;9.98;;;2.03;;
17177;SDS011;8704;52.006;4.374;2023-04-25T06:39:10;10.18;;;1.98;;
17177;SDS011;8704;52.006;4.374;2023-04-25T06:41:38;5.63;;;1.95;;
17177;SDS011;8704;52.006;4.374;2023-04-25T06:44:07;6.55;;;2.30;;
17177;SDS011;8704;52.006;4.374;2023-04-25T06:46:35;8.45;;;2.00;;
17177;SDS011;8704;52.006;4.374;2023-04-25T06:49:03;6.35;;;1.90;;
17177;SDS011;8704;52.006;4.374;2023-04-25T06:51:33;8.95;;;2.08;;
17177;SDS011;8704;52.006;4.374;2023-04-25T06:54:01;6.80;;;2.00;;
17177;SDS011;8704;52.006;4.374;2023-04-25T06:56:30;5.70;;;1.75;;
17177;SDS011;8704;52.006;4.374;2023-04-25T06:58:58;7.25;;;2.20;;
17177;SDS011;8704;52.006;4.374;2023-04-25T07:01:27;7.78;;;2.30;;
17177;SDS011;8704;52.006;4.374;2023-04-25T07:03:55;9.70;;;2.40;;
17177;SDS011;8704;52.006;4.374;2023-04-25T07:06:23;6.05;;;2.10;;
17177;SDS011;8704;52.006;4.374;2023-04-25T07:08:54;6.60;;;1.90;;
17177;SDS011;8704;52.006;4.374;2023-04-25T07:11:22;11.35;;;2.00;;
17177;SDS011;8704;52.006;4.374;2023-04-25T07:13:50;10.18;;;2.17;;
17177;SDS011;8704;52.006;4.374;2023-04-25T07:16:18;7.10;;;1.75;;
17177;SDS011;8704;52.006;4.374;2023-04-25T07:18:46;5.80;;;1.55;;
17177;SDS011;8704;52.006;4.374;2023-04-25T07:21:14;11.00;;;1.60;;
17177;SDS011;8704;52.006;4.374;2023-04-25T07:23:42;12.43;;;2.20;;
17177;SDS011;8704;52.006;4.374;2023-04-25T07:26:12;8.75;;;1.75;;
17177;SDS011;8704;52.006;4.374;2023-04-25T07:28:40;7.70;;;1.58;;
17177;SDS011;8704;52.006;4.374;2023-04-25T07:31:08;8.95;;;1.73;;
17177;SDS011;8704;52.006;4.374;2023-04-25T07:33:36;8.43;;;1.90;;
17177;SDS011;8704;52.006;4.374;2023-04-25T07:36:05;6.07;;;1.30;;
17177;SDS011;8704;52.006;4.374;2023-04-25T07:38:33;9.93;;;1.92;;
17177;SDS011;8704;52.006;4.374;2023-04-25T07:41:01;7.07;;;1.65;;
17177;SDS011;8704;52.006;4.374;2023-04-25T07:43:30;8.02;;;1.52;;
17177;SDS011;8704;52.006;4.374;2023-04-25T07:45:58;7.07;;;1.48;;
17177;SDS011;8704;52.006;4.374;2023-04-25T07:48:26;8.45;;;1.70;;
17177;SDS011;8704;52.006;4.374;2023-04-25T07:50:55;8.48;;;1.73;;
17177;SDS011;8704;52.006;4.374;2023-04-25T07:53:23;8.85;;;1.88;;
17177;SDS011;8704;52.006;4.374;2023-04-25T07:55:51;6.50;;;1.50;;
17177;SDS011;8704;52.006;4.374;2023-04-25T07:58:19;6.47;;;1.77;;
17177;SDS011;8704;52.006;4.374;2023-04-25T08:00:49;5.88;;;1.30;;
17177;SDS011;8704;52.006;4.374;2023-04-25T08:03:18;8.13;;;1.70;;
17177;SDS011;8704;52.006;4.374;2023-04-25T08:05:46;8.98;;;1.60;;
17177;SDS011;8704;52.006;4.374;2023-04-25T08:08:14;7.85;;;1.58;;
17177;SDS011;8704;52.006;4.374;2023-04-25T08:10:42;7.43;;;1.80;;
17177;SDS011;8704;52.006;4.374;2023-04-25T08:13:10;6.82;;;1.40;;
17177;SDS011;8704;52.006;4.374;2023-04-25T08:15:38;5.13;;;1.27;;
17177;SDS011;8704;52.006;4.374;2023-04-25T08:18:08;7.18;;;1.33;;
17177;SDS011;8704;52.006;4.374;2023-04-25T08:20:36;6.03;;;1.00;;
17177;SDS011;8704;52.006;4.374;2023-04-25T08:23:04;7.07;;;1.25;;
17177;SDS011;8704;52.006;4.374;2023-04-25T08:25:32;5.10;;;1.27;;
17177;SDS011;8704;52.006;4.374;2023-04-25T08:28:00;8.73;;;1.63;;
17177;SDS011;8704;52.006;4.374;2023-04-25T08:30:29;6.28;;;1.45;;
17177;SDS011;8704;52.006;4.374;2023-04-25T08:32:57;8.93;;;1.83;;
17177;SDS011;8704;52.006;4.374;2023-04-25T08:35:26;10.13;;;1.70;;
17177;SDS011;8704;52.006;4.374;2023-04-25T08:37:54;8.00;;;1.73;;
17177;SDS011;8704;52.006;4.374;2023-04-25T08:40:23;8.65;;;1.70;;
17177;SDS011;8704;52.006;4.374;2023-04-25T08:42:56;13.75;;;1.85;;
17177;SDS011;8704;52.006;4.374;2023-04-25T08:45:26;9.57;;;2.00;;
17177;SDS011;8704;52.006;4.374;2023-04-25T08:47:58;10.82;;;1.73;;
17177;SDS011;8704;52.006;4.374;2023-04-25T08:50:29;6.60;;;1.42;;
17177;SDS011;8704;52.006;4.374;2023-04-25T08:52:57;8.70;;;1.75;;
17177;SDS011;8704;52.006;4.374;2023-04-25T08:55:29;7.03;;;1.48;;
17177;SDS011;8704;52.006;4.374;2023-04-25T08:57:58;7.13;;;1.58;;
17177;SDS011;8704;52.006;4.374;2023-04-25T09:00:28;7.75;;;1.40;;
17177;SDS011;8704;52.006;4.374;2023-04-25T09:02:56;6.05;;;1.25;;
17177;SDS011;8704;52.006;4.374;2023-04-25T09:05:26;4.78;;;1.40;;
17177;SDS011;8704;52.006;4.374;2023-04-25T09:07:56;4.47;;;1.50;;
17177;SDS011;8704;52.006;4.374;2023-04-25T09:10:24;8.00;;;1.40;;
17177;SDS011;8704;52.006;4.374;2023-04-25T09:13:02;5.55;;;1.30;;
17177;SDS011;8704;52.006;4.374;2023-04-25T09:15:32;5.15;;;1.27;;
17177;SDS011;8704;52.006;4.374;2023-04-25T09:18:00;7.78;;;1.67;;
17177;SDS011;8704;52.006;4.374;2023-04-25T09:20:28;8.70;;;1.60;;
17177;SDS011;8704;52.006;4.374;2023-04-25T09:23:03;5.63;;;1.30;;
17177;SDS011;8704;52.006;4.374;2023-04-25T09:25:33;6.15;;;1.50;;
17177;SDS011;8704;52.006;4.374;2023-04-25T09:28:05;3.88;;;1.40;;
17177;SDS011;8704;52.006;4.374;2023-04-25T09:30:34;9.65;;;1.85;;
17177;SDS011;8704;52.006;4.374;2023-04-25T09:33:04;7.85;;;1.55;;
17177;SDS011;8704;52.006;4.374;2023-04-25T09:35:37;6.20;;;1.52;;
17177;SDS011;8704;52.006;4.374;2023-04-25T09:38:11;7.47;;;1.80;;
17177;SDS011;8704;52.006;4.374;2023-04-25T09:40:40;10.85;;;1.77;;
17177;SDS011;8704;52.006;4.374;2023-04-25T09:43:18;8.35;;;1.83;;
17177;SDS011;8704;52.006;4.374;2023-04-25T09:45:48;11.27;;;1.33;;
17177;SDS011;8704;52.006;4.374;2023-04-25T09:48:18;4.47;;;1.50;;
17177;SDS011;8704;52.006;4.374;2023-04-25T09:50:51;11.23;;;1.83;;
17177;SDS011;8704;52.006;4.374;2023-04-25T09:53:33;6.75;;;1.85;;
17177;SDS011;8704;52.006;4.374;2023-04-25T09:56:03;9.70;;;2.08;;
17177;SDS011;8704;52.006;4.374;2023-04-25T09:58:33;5.70;;;1.83;;
17177;SDS011;8704;52.006;4.374;2023-04-25T10:01:02;8.48;;;1.88;;
17177;SDS011;8704;52.006;4.374;2023-04-25T10:03:32;7.15;;;1.95;;
17177;SDS011;8704;52.006;4.374;2023-04-25T10:06:02;8.85;;;1.70;;
17177;SDS011;8704;52.006;4.374;2023-04-25T10:08:36;6.90;;;1.90;;
17177;SDS011;8704;52.006;4.374;2023-04-25T10:11:05;6.35;;;1.70;;
17177;SDS011;8704;52.006;4.374;2023-04-25T10:13:34;11.63;;;1.85;;
17177;SDS011;8704;52.006;4.374;2023-04-25T10:16:03;8.40;;;2.17;;
17177;SDS011;8704;52.006;4.374;2023-04-25T10:18:32;8.57;;;1.73;;
17177;SDS011;8704;52.006;4.374;2023-04-25T10:21:01;10.02;;;1.58;;
17177;SDS011;8704;52.006;4.374;2023-04-25T10:23:32;7.47;;;1.43;;
17177;SDS011;8704;52.006;4.374;2023-04-25T10:26:02;7.82;;;1.50;;
17177;SDS011;8704;52.006;4.374;2023-04-25T10:28:31;11.68;;;2.10;;
17177;SDS011;8704;52.006;4.374;2023-04-25T10:31:22;10.48;;;2.17;;
17177;SDS011;8704;52.006;4.374;2023-04-25T10:33:51;9.80;;;1.73;;
17177;SDS011;8704;52.006;4.374;2023-04-25T10:36:19;7.70;;;1.90;;
17177;SDS011;8704;52.006;4.374;2023-04-25T10:38:49;7.53;;;2.08;;
17177;SDS011;8704;52.006;4.374;2023-04-25T10:41:19;8.95;;;1.95;;
17177;SDS011;8704;52.006;4.374;2023-04-25T10:43:49;8.65;;;1.88;;
17177;SDS011;8704;52.006;4.374;2023-04-25T10:46:27;10.45;;;2.35;;
17177;SDS011;8704;52.006;4.374;2023-04-25T10:48:57;7.68;;;1.63;;
17177;SDS011;8704;52.006;4.374;2023-04-25T10:51:27;7.93;;;1.90;;
17177;SDS011;8704;52.006;4.374;2023-04-25T10:54:16;6.90;;;1.48;;
17177;SDS011;8704;52.006;4.374;2023-04-25T10:56:48;7.32;;;1.75;;
17177;SDS011;8704;52.006;4.374;2023-04-25T10:59:18;7.70;;;1.92;;
17177;SDS011;8704;52.006;4.374;2023-04-25T11:01:48;7.55;;;1.95;;
17177;SDS011;8704;52.006;4.374;2023-04-25T11:04:22;9.52;;;1.80;;
17177;SDS011;8704;52.006;4.374;2023-04-25T11:06:57;9.13;;;1.83;;
17177;SDS011;8704;52.006;4.374;2023-04-25T11:09:33;8.40;;;1.98;;
17177;SDS011;8704;52.006;4.374;2023-04-25T11:12:03;6.47;;;1.50;;
17177;SDS011;8704;52.006;4.374;2023-04-25T11:14:32;8.02;;;1.88;;
17177;SDS011;8704;52.006;4.374;2023-04-25T11:17:00;4.85;;;1.08;;
17177;SDS011;8704;52.006;4.374;2023-04-25T11:19:29;7.30;;;1.67;;
17177;SDS011;8704;52.006;4.374;2023-04-25T11:21:57;5.00;;;1.25;;
17177;SDS011;8704;52.006;4.374;2023-04-25T11:24:26;4.15;;;1.23;;
17177;SDS011;8704;52.006;4.374;2023-04-25T11:26:55;9.75;;;1.80;;
17177;SDS011;8704;52.006;4.374;2023-04-25T11:29:25;7.00;;;1.50;;
17177;SDS011;8704;52.006;4.374;2023-04-25T11:31:54;7.45;;;1.50;;
17177;SDS011;8704;52.006;4.374;2023-04-25T11:34:24;7.88;;;1.60;;
17177;SDS011;8704;52.006;4.374;2023-04-25T11:36:52;5.22;;;1.65;;
17177;SDS011;8704;52.006;4.374;2023-04-25T11:39:21;4.05;;;1.20;;
17177;SDS011;8704;52.006;4.374;2023-04-25T11:41:51;10.00;;;1.60;;
17177;SDS011;8704;52.006;4.374;2023-04-25T11:44:19;9.23;;;1.98;;
17177;SDS011;8704;52.006;4.374;2023-04-25T11:46:49;7.57;;;1.80;;
17177;SDS011;8704;52.006;4.374;2023-04-25T11:49:17;6.97;;;1.42;;
17177;SDS011;8704;52.006;4.374;2023-04-25T11:51:45;6.05;;;1.40;;
17177;SDS011;8704;52.006;4.374;2023-04-25T11:54:15;6.05;;;1.40;;
17177;SDS011;8704;52.006;4.374;2023-04-25T11:56:46;6.60;;;1.35;;
17177;SDS011;8704;52.006;4.374;2023-04-25T11:59:15;10.20;;;1.90;;
17177;SDS011;8704;52.006;4.374;2023-04-25T12:01:49;8.73;;;2.10;;
17177;SDS011;8704;52.006;4.374;2023-04-25T12:04:18;6.18;;;1.77;;
17177;SDS011;8704;52.006;4.374;2023-04-25T12:06:48;7.43;;;1.80;;
17177;SDS011;8704;52.006;4.374;2023-04-25T12:09:17;5.68;;;1.63;;
17177;SDS011;8704;52.006;4.374;2023-04-25T12:11:48;10.65;;;2.10;;
17177;SDS011;8704;52.006;4.374;2023-04-25T12:14:20;13.93;;;2.20;;
17177;SDS011;8704;52.006;4.374;2023-04-25T12:16:51;9.98;;;1.95;;
17177;SDS011;8704;52.006;4.374;2023-04-25T12:19:20;6.93;;;1.65;;
17177;SDS011;8704;52.006;4.374;2023-04-25T12:21:48;8.18;;;1.90;;
17177;SDS011;8704;52.006;4.374;2023-04-25T12:24:22;8.25;;;1.80;;
17177;SDS011;8704;52.006;4.374;2023-04-25T12:26:52;6.63;;;1.90;;
17177;SDS011;8704;52.006;4.374;2023-04-25T12:29:22;9.38;;;2.28;;
17177;SDS011;8704;52.006;4.374;2023-04-25T12:31:58;6.78;;;1.80;;
17177;SDS011;8704;52.006;4.374;2023-04-25T12:34:27;8.30;;;1.63;;
17177;SDS011;8704;52.006;4.374;2023-04-25T12:36:57;6.05;;;1.52;;
17177;SDS011;8704;52.006;4.374;2023-04-25T12:39:25;5.03;;;1.40;;
17177;SDS011;8704;52.006;4.374;2023-04-25T12:41:53;7.80;;;1.90;;
17177;SDS011;8704;52.006;4.374;2023-04-25T12:44:21;5.25;;;1.42;;
17177;SDS011;8704;52.006;4.374;2023-04-25T12:46:49;5.45;;;1.35;;
17177;SDS011;8704;52.006;4.374;2023-04-25T12:49:19;5.28;;;1.38;;
17177;SDS011;8704;52.006;4.374;2023-04-25T12:51:49;5.65;;;1.13;;
17177;SDS011;8704;52.006;4.374;2023-04-25T12:54:17;5.90;;;1.50;;
17177;SDS011;8704;52.006;4.374;2023-04-25T12:56:46;5.10;;;1.40;;
17177;SDS011;8704;52.006;4.374;2023-04-25T12:59:14;5.72;;;1.50;;
17177;SDS011;8704;52.006;4.374;2023-04-25T13:01:42;9.25;;;1.85;;
17177;SDS011;8704;52.006;4.374;2023-04-25T13:04:10;6.35;;;1.65;;
17177;SDS011;8704;52.006;4.374;2023-04-25T13:06:40;5.43;;;1.90;;
17177;SDS011;8704;52.006;4.374;2023-04-25T13:09:08;9.27;;;2.20;;
17177;SDS011;8704;52.006;4.374;2023-04-25T13:11:39;4.95;;;1.40;;
17177;SDS011;8704;52.006;4.374;2023-04-25T13:14:07;4.78;;;1.42;;
17177;SDS011;8704;52.006;4.374;2023-04-25T13:16:35;4.57;;;1.25;;
17177;SDS011;8704;52.006;4.374;2023-04-25T13:19:04;6.65;;;1.77;;
17177;SDS011;8704;52.006;4.374;2023-04-25T13:21:34;7.75;;;1.67;;
17177;SDS011;8704;52.006;4.374;2023-04-25T13:24:03;7.68;;;1.48;;
17177;SDS011;8704;52.006;4.374;2023-04-25T13:26:31;7.18;;;1.65;;
17177;SDS011;8704;52.006;4.374;2023-04-25T13:28:59;5.78;;;1.80;;
17177;SDS011;8704;52.006;4.374;2023-04-25T13:31:30;9.10;;;2.22;;
17177;SDS011;8704;52.006;4.374;2023-04-25T13:33:58;9.00;;;1.80;;
17177;SDS011;8704;52.006;4.374;2023-04-25T13:36:27;6.18;;;1.58;;
17177;SDS011;8704;52.006;4.374;2023-04-25T13:38:55;9.57;;;2.00;;
17177;SDS011;8704;52.006;4.374;2023-04-25T13:41:24;8.35;;;1.65;;
17177;SDS011;8704;52.006;4.374;2023-04-25T13:43:52;6.53;;;1.80;;
17177;SDS011;8704;52.006;4.374;2023-04-25T13:46:20;8.13;;;1.80;;
17177;SDS011;8704;52.006;4.374;2023-04-25T13:49:09;7.13;;;1.90;;
17177;SDS011;8704;52.006;4.374;2023-04-25T13:51:38;7.05;;;1.77;;
17177;SDS011;8704;52.006;4.374;2023-04-25T13:54:07;6.68;;;1.77;;
17177;SDS011;8704;52.006;4.374;2023-04-25T13:56:36;3.08;;;1.20;;
17177;SDS011;8704;52.006;4.374;2023-04-25T13:59:04;4.50;;;1.48;;
17177;SDS011;8704;52.006;4.374;2023-04-25T14:01:33;4.72;;;1.33;;
17177;SDS011;8704;52.006;4.374;2023-04-25T14:04:02;3.97;;;1.50;;
17177;SDS011;8704;52.006;4.374;2023-04-25T14:06:30;6.85;;;1.48;;
17177;SDS011;8704;52.006;4.374;2023-04-25T14:08:59;4.43;;;1.13;;
17177;SDS011;8704;52.006;4.374;2023-04-25T14:11:27;4.68;;;1.70;;
17177;SDS011;8704;52.006;4.374;2023-04-25T14:13:57;5.90;;;1.77;;
17177;SDS011;8704;52.006;4.374;2023-04-25T14:16:25;6.15;;;1.55;;
17177;SDS011;8704;52.006;4.374;2023-04-25T14:18:53;5.13;;;1.50;;
17177;SDS011;8704;52.006;4.374;2023-04-25T14:21:21;4.35;;;1.52;;
17177;SDS011;8704;52.006;4.374;2023-04-25T14:23:49;5.72;;;1.63;;
17177;SDS011;8704;52.006;4.374;2023-04-25T14:26:18;4.80;;;1.52;;
17177;SDS011;8704;52.006;4.374;2023-04-25T14:28:46;6.35;;;1.48;;
17177;SDS011;8704;52.006;4.374;2023-04-25T14:31:15;3.30;;;1.20;;
17177;SDS011;8704;52.006;4.374;2023-04-25T14:33:43;5.30;;;1.30;;
17177;SDS011;8704;52.006;4.374;2023-04-25T14:36:12;4.72;;;1.50;;
17177;SDS011;8704;52.006;4.374;2023-04-25T14:38:40;6.00;;;1.48;;
17177;SDS011;8704;52.006;4.374;2023-04-25T14:41:08;6.15;;;1.40;;
17177;SDS011;8704;52.006;4.374;2023-04-25T14:43:36;8.45;;;1.65;;
17177;SDS011;8704;52.006;4.374;2023-04-25T14:46:06;4.57;;;1.73;;
17177;SDS011;8704;52.006;4.374;2023-04-25T14:48:35;4.90;;;1.58;;
17177;SDS011;8704;52.006;4.374;2023-04-25T14:51:03;6.18;;;1.80;;
17177;SDS011;8704;52.006;4.374;2023-04-25T14:53:31;3.88;;;1.10;;
17177;SDS011;8704;52.006;4.374;2023-04-25T14:56:00;4.38;;;1.20;;
17177;SDS011;8704;52.006;4.374;2023-04-25T14:58:28;4.32;;;1.20;;
17177;SDS011;8704;52.006;4.374;2023-04-25T15:00:56;4.05;;;1.38;;
17177;SDS011;8704;52.006;4.374;2023-04-25T15:03:24;5.38;;;1.67;;
17177;SDS011;8704;52.006;4.374;2023-04-25T15:05:55;6.28;;;1.58;;